Time;durP1;ratioP1;P1;durP2;ratioP2;P2;SDS_P1;SDS_P2;PMS_P1;PMS_P2;Temp;Humidity;BMP_temperature;BMP_pressure;BME280_temperature;BME280_humidity;BME280_pressure;Samples;Min_cycle;Max_cycle;Signal;HPM_P1;HPM_P2
2020/12/15 00:00:51;;;;;;;26.40;16.12;;;;;;;3.57;69.38;101010.98;1748947;80;21537;-68
2020/12/15 00:03:19;;;;;;;29.15;15.98;;;;;;;3.57;69.33;101016.19;1748143;80;21209;-67
2020/12/15 00:05:48;;;;;;;30.35;18.90;;;;;;;3.56;69.29;101013.17;1743110;80;21219;-68
2020/12/15 00:08:15;;;;;;;30.27;18.95;;;;;;;3.53;69.41;101019.80;1750405;80;21213;-68
2020/12/15 00:10:44;;;;;;;29.90;19.35;;;;;;;3.50;69.41;101024.69;1746703;80;21188;-67
2020/12/15 00:13:11;;;;;;;29.37;17.10;;;;;;;3.47;69.43;101021.37;1744927;80;22368;-68
2020/12/15 00:15:40;;;;;;;28.57;17.00;;;;;;;3.42;69.49;101028.05;1745988;80;21202;-68
2020/12/15 00:18:08;;;;;;;30.37;16.42;;;;;;;3.40;69.43;101029.87;1743650;80;21164;-68
2020/12/15 00:20:40;;;;;;;26.55;14.85;;;;;;;3.48;69.32;101028.25;1741817;80;21566;-68
2020/12/15 00:23:08;;;;;;;26.40;16.73;;;;;;;3.54;69.21;101038.42;1723224;81;21158;-68
2020/12/15 00:25:36;;;;;;;29.72;16.12;;;;;;;3.54;69.19;101033.22;1749535;80;22305;-68
2020/12/15 00:28:04;;;;;;;37.17;18.02;;;;;;;3.47;69.26;101033.08;1743879;80;21786;-68
2020/12/15 00:30:31;;;;;;;35.75;19.00;;;;;;;3.40;69.42;101032.94;1707660;82;21213;-68
2020/12/15 00:32:58;;;;;;;33.50;17.77;;;;;;;3.37;69.65;101035.19;1745216;81;21760;-68
2020/12/15 00:35:26;;;;;;;27.55;15.72;;;;;;;3.36;69.69;101036.09;1704165;82;21180;-69
2020/12/15 00:37:53;;;;;;;29.98;17.12;;;;;;;3.35;69.65;101035.72;1721285;81;22267;-69
2020/12/15 00:40:21;;;;;;;29.27;17.82;;;;;;;3.32;69.72;101041.03;1744182;80;22306;-69
2020/12/15 00:42:49;;;;;;;27.67;16.67;;;;;;;3.31;69.79;101040.63;1744187;80;21672;-68
2020/12/15 00:45:16;;;;;;;29.42;16.07;;;;;;;3.29;69.81;101039.84;1709140;82;21617;-69
2020/12/15 00:47:43;;;;;;;24.35;15.00;;;;;;;3.28;69.74;101039.47;1740066;81;21176;-69
2020/12/15 00:50:12;;;;;;;26.70;16.00;;;;;;;3.37;69.57;101043.00;1742192;80;21377;-68
2020/12/15 00:52:40;;;;;;;29.63;15.90;;;;;;;3.41;69.42;101038.05;1738303;80;21661;-68
2020/12/15 00:55:08;;;;;;;26.93;16.00;;;;;;;3.40;69.41;101040.28;1695578;82;21222;-68
2020/12/15 00:57:37;;;;;;;32.88;18.23;;;;;;;3.33;69.65;101044.88;1738545;80;21625;-68
2020/12/15 01:00:10;;;;;;;32.78;17.12;;;;;;;3.29;69.83;101046.34;1709008;82;21251;-68
2020/12/15 01:02:37;;;;;;;28.05;18.32;;;;;;;3.26;69.93;101040.83;1744199;80;21212;-68
2020/12/15 01:05:05;;;;;;;32.15;18.50;;;;;;;3.26;69.97;101049.06;1747386;80;21185;-68
2020/12/15 01:07:33;;;;;;;30.52;19.20;;;;;;;3.21;70.01;101051.00;1742802;80;21194;-68
2020/12/15 01:10:04;;;;;;;30.08;17.05;;;;;;;3.13;70.11;101043.52;1746717;80;21168;-68
2020/12/15 01:12:32;;;;;;;32.75;19.25;;;;;;;3.08;70.23;101047.58;1740361;80;21126;-68
2020/12/15 01:15:02;;;;;;;29.12;16.82;;;;;;;3.04;70.36;101047.75;1743323;80;21170;-68
2020/12/15 01:17:30;;;;;;;28.42;16.12;;;;;;;3.06;70.37;101045.50;1704502;82;21484;-68
2020/12/15 01:19:57;;;;;;;33.73;17.98;;;;;;;3.15;70.20;101048.19;1731297;81;21158;-68
2020/12/15 01:22:25;;;;;;;24.23;16.12;;;;;;;3.23;70.08;101045.28;1728384;80;21189;-68
2020/12/15 01:24:52;;;;;;;33.42;18.62;;;;;;;3.27;69.98;101045.11;1699062;82;21193;-68
2020/12/15 01:27:33;;;;;;;34.33;18.95;;;;;;;3.27;70.04;101036.47;1794544;79;22538;-68
2020/12/15 01:30:05;;;;;;;30.23;18.15;;;;;;;3.22;70.11;101043.60;1780214;79;21093;-68
2020/12/15 01:32:50;;;;;;;30.37;19.55;;;;;;;3.20;70.24;101042.36;1765806;80;21208;-69
2020/12/15 01:35:21;;;;;;;30.85;21.05;;;;;;;3.20;70.31;101040.22;1771214;80;21204;-68
2020/12/15 01:37:51;;;;;;;33.88;19.37;;;;;;;3.21;70.30;101036.27;1776373;79;21100;-69
2020/12/15 01:40:20;;;;;;;28.32;18.75;;;;;;;3.22;70.27;101037.10;1759704;78;21160;-68
2020/12/15 01:42:49;;;;;;;32.15;19.05;;;;;;;3.19;70.22;101034.61;1767570;79;21053;-69
2020/12/15 01:45:19;;;;;;;31.48;16.97;;;;;;;3.14;70.26;101029.15;1772970;80;21293;-68
2020/12/15 01:47:46;;;;;;;38.10;17.65;;;;;;;3.19;70.23;101034.15;1768632;80;21215;-68
2020/12/15 01:50:19;;;;;;;27.48;17.55;;;;;;;3.31;70.03;101028.48;1775435;80;21718;-69
2020/12/15 01:52:47;;;;;;;34.53;17.12;;;;;;;3.42;69.75;101034.55;1716179;79;21163;-68
2020/12/15 01:55:16;;;;;;;34.83;18.90;;;;;;;3.43;69.69;101030.19;1775044;80;21124;-69
2020/12/15 01:57:47;;;;;;;31.07;17.92;;;;;;;3.43;69.76;101034.96;1760696;80;21164;-69
2020/12/15 02:00:29;;;;;;;31.60;17.27;;;;;;;3.43;69.77;101033.66;1771271;78;21608;-69
2020/12/15 02:03:08;;;;;;;29.67;18.12;;;;;;;3.44;69.74;101034.50;1871349;76;22632;-69
2020/12/15 02:05:53;;;;;;;37.70;20.65;;;;;;;3.32;69.76;101036.67;1838794;75;21135;-68
2020/12/15 02:08:21;;;;;;;32.58;19.02;;;;;;;3.21;69.92;101041.89;1795188;78;21755;-69
2020/12/15 02:10:50;;;;;;;31.82;18.67;;;;;;;3.09;70.11;101044.09;1803581;78;21235;-69
2020/12/15 02:13:22;;;;;;;28.57;16.95;;;;;;;3.01;70.33;101046.13;1777989;79;21110;-68
2020/12/15 02:15:52;;;;;;;26.50;17.77;;;;;;;3.03;70.42;101049.97;1799129;78;21052;-69
2020/12/15 02:18:20;;;;;;;29.12;17.12;;;;;;;3.15;70.25;101042.53;1805267;77;21163;-68
2020/12/15 02:20:50;;;;;;;32.28;16.77;;;;;;;3.23;70.09;101029.24;1810395;78;21123;-68
2020/12/15 02:23:36;;;;;;;27.30;16.45;;;;;;;3.33;70.08;101032.34;1764692;79;22693;-69
2020/12/15 02:26:24;;;;;;;24.23;16.48;;;;;;;3.35;70.03;101033.11;1866128;76;23329;-68
2020/12/15 02:28:54;;;;;;;34.48;18.27;;;;;;;3.26;69.92;101029.13;1845935;75;21598;-68
2020/12/15 02:31:23;;;;;;;36.00;19.23;;;;;;;3.20;70.09;101027.22;1857758;76;21461;-69
2020/12/15 02:33:52;;;;;;;30.37;17.77;;;;;;;3.20;70.19;101029.82;1848415;76;21415;-68
2020/12/15 02:36:20;;;;;;;25.30;17.40;;;;;;;3.20;70.18;101025.92;1853965;76;21025;-68
2020/12/15 02:38:52;;;;;;;30.32;17.95;;;;;;;3.18;70.16;101019.47;1855869;77;21108;-68
2020/12/15 02:41:19;;;;;;;29.80;16.32;;;;;;;3.12;70.18;101021.00;1852412;77;21103;-68
2020/12/15 02:43:49;;;;;;;26.37;16.45;;;;;;;3.11;70.15;101017.56;1853957;75;22660;-68
2020/12/15 02:46:17;;;;;;;21.77;15.83;;;;;;;3.20;69.99;101022.02;1863470;76;20985;-68
2020/12/15 02:48:48;;;;;;;30.52;15.90;;;;;;;3.22;69.86;101022.80;1858318;76;21171;-68
2020/12/15 02:51:19;;;;;;;23.85;15.88;;;;;;;3.28;69.87;101024.70;1853394;76;21139;-68
2020/12/15 02:53:49;;;;;;;25.97;15.65;;;;;;;3.33;69.74;101025.37;1856227;76;21191;-68
2020/12/15 02:56:23;;;;;;;30.85;17.40;;;;;;;3.32;69.72;101028.02;1768346;80;21543;-68
2020/12/15 02:58:54;;;;;;;20.90;12.75;;;;;;;3.29;69.77;101032.05;1816472;78;21163;-68
2020/12/15 03:01:23;;;;;;;31.80;16.30;;;;;;;3.23;69.77;101034.88;1810462;77;21207;-69
2020/12/15 03:03:56;;;;;;;26.25;14.68;;;;;;;3.20;69.92;101040.22;1812665;78;21124;-68
2020/12/15 03:06:25;;;;;;;25.52;15.30;;;;;;;3.16;70.00;101031.66;1815594;78;21091;-68
2020/12/15 03:08:54;;;;;;;24.55;16.62;;;;;;;3.14;70.06;101033.05;1774165;80;21194;-68
2020/12/15 03:11:24;;;;;;;27.40;15.70;;;;;;;3.13;70.05;101030.05;1764778;79;21139;-69
2020/12/15 03:13:53;;;;;;;26.02;15.05;;;;;;;3.10;70.03;101030.16;1796159;78;21508;-68
2020/12/15 03:16:20;;;;;;;26.23;14.55;;;;;;;3.12;70.03;101032.70;1798793;79;21116;-68
2020/12/15 03:18:51;;;;;;;23.32;14.87;;;;;;;3.20;69.84;101026.75;1796038;78;21683;-68
2020/12/15 03:21:23;;;;;;;25.08;14.05;;;;;;;3.26;69.74;101030.86;1772610;79;22271;-68
2020/12/15 03:23:52;;;;;;;25.55;14.87;;;;;;;3.29;69.75;101032.05;1751208;79;21553;-68
2020/12/15 03:26:23;;;;;;;26.73;15.45;;;;;;;3.24;69.84;101035.28;1766398;79;21166;-69
2020/12/15 03:28:51;;;;;;;28.85;16.12;;;;;;;3.25;69.98;101035.69;1748456;79;21207;-69
2020/12/15 03:31:18;;;;;;;27.30;15.13;;;;;;;3.27;69.94;101035.16;1768056;80;21151;-69
2020/12/15 03:33:48;;;;;;;29.80;16.40;;;;;;;3.22;69.90;101038.41;1755557;79;21197;-69
2020/12/15 03:36:16;;;;;;;27.45;15.08;;;;;;;3.16;69.98;101036.86;1765457;79;21462;-69
2020/12/15 03:38:44;;;;;;;21.90;14.60;;;;;;;3.07;70.10;101043.73;1788525;79;21727;-69
2020/12/15 03:41:11;;;;;;;27.02;14.30;;;;;;;3.00;70.28;101049.62;1790193;78;21189;-69
2020/12/15 03:43:43;;;;;;;25.55;14.28;;;;;;;3.01;70.35;101060.42;1790408;78;21188;-69
2020/12/15 03:46:33;;;;;;;30.77;15.10;;;;;;;3.16;70.19;101053.77;1819409;76;22703;-68
2020/12/15 03:49:02;;;;;;;27.32;16.70;;;;;;;3.20;70.03;101062.33;1786712;79;21162;-68
2020/12/15 03:51:31;;;;;;;25.37;14.10;;;;;;;3.23;70.05;101056.98;1796559;79;21178;-68
2020/12/15 03:54:08;;;;;;;;;;;;;;;3.28;70.17;101055.91;1874255;75;21965;-69
2020/12/15 03:56:37;;;;;;;26.07;15.75;;;;;;;3.30;70.19;101054.09;1836701;76;20269;-69
2020/12/15 03:59:05;;;;;;;25.80;15.10;;;;;;;3.28;70.18;101066.32;1834542;77;22109;-68
2020/12/15 04:01:32;;;;;;;25.82;13.85;;;;;;;3.31;70.17;101067.94;1837874;77;21219;-68
2020/12/15 04:04:02;;;;;;;26.42;16.80;;;;;;;3.29;70.01;101077.56;1832819;77;21172;-68
2020/12/15 04:06:31;;;;;;;21.68;14.47;;;;;;;3.26;70.03;101076.38;1841832;77;21211;-68
2020/12/15 04:09:01;;;;;;;31.75;16.17;;;;;;;3.23;70.07;101077.79;1845419;77;21235;-68
2020/12/15 04:11:30;;;;;;;32.23;14.40;;;;;;;3.18;70.06;101077.98;1837670;76;22166;-69
2020/12/15 04:13:57;;;;;;;23.70;13.28;;;;;;;3.18;70.04;101083.19;1837165;77;21187;-70
2020/12/15 04:16:25;;;;;;;25.45;13.48;;;;;;;3.27;69.84;101085.89;1838082;77;21191;-70
2020/12/15 04:19:09;;;;;;;27.70;14.23;;;;;;;3.38;69.69;101091.53;1869168;75;22341;-63
2020/12/15 04:21:37;;;;;;;23.35;13.95;;;;;;;3.38;69.61;101095.86;1793268;78;21221;-68
2020/12/15 04:24:07;;;;;;;31.20;14.28;;;;;;;3.37;69.75;101098.09;1782854;78;21275;-62
2020/12/15 04:26:40;;;;;;;30.95;14.60;;;;;;;3.37;69.79;101102.83;1765026;80;21207;-71
2020/12/15 04:29:08;;;;;;;23.65;15.03;;;;;;;3.38;69.76;101105.84;1796451;78;21213;-71
2020/12/15 04:31:41;;;;;;;24.50;15.18;;;;;;;3.37;69.77;101104.13;1795089;78;21127;-68
2020/12/15 04:34:09;;;;;;;26.02;14.85;;;;;;;3.35;69.80;101104.19;1810003;78;22032;-71
2020/12/15 04:36:38;;;;;;;21.75;14.20;;;;;;;3.35;69.81;101104.66;1793630;78;21898;-61
2020/12/15 04:39:06;;;;;;;29.87;14.25;;;;;;;3.33;69.79;101105.17;1787347;78;21214;-69
2020/12/15 04:41:35;;;;;;;31.77;15.40;;;;;;;3.30;69.80;101103.98;1782681;78;21225;-65
2020/12/15 04:44:03;;;;;;;19.55;13.32;;;;;;;3.32;69.76;101105.60;1743047;78;21202;-66
2020/12/15 04:46:43;;;;;;;24.10;14.55;;;;;;;3.39;69.59;101109.28;1796317;79;21625;-67
2020/12/15 04:49:11;;;;;;;32.15;21.82;;;;;;;3.46;69.52;101110.73;1798136;78;21388;-66
2020/12/15 04:52:05;;;;;;;32.53;20.60;;;;;;;3.45;69.48;101109.05;1771587;78;21171;-67
2020/12/15 04:54:35;;;;;;;24.98;15.68;;;;;;;3.41;69.62;101112.66;1782783;78;21164;-65
2020/12/15 04:57:21;;;;;;;28.65;16.20;;;;;;;3.37;69.79;101110.63;1862758;74;22795;-69
2020/12/15 04:59:51;;;;;;;32.00;15.63;;;;;;;3.28;69.92;101113.61;1839299;76;21167;-66
2020/12/15 05:02:23;;;;;;;24.23;12.93;;;;;;;3.25;69.97;101122.81;1844636;75;22272;-64
2020/12/15 05:04:52;;;;;;;28.98;13.60;;;;;;;3.17;70.08;101121.80;1806797;76;21095;-65
2020/12/15 05:07:20;;;;;;;26.48;13.95;;;;;;;3.08;70.28;101115.65;1843742;75;21191;-66
2020/12/15 05:10:02;;;;;;;19.90;12.98;;;;;;;3.04;70.46;101122.69;1840723;75;21174;-65
2020/12/15 05:12:50;;;;;;;34.35;19.37;;;;;;;3.15;70.44;101120.55;1776369;77;38928;-66
2020/12/15 05:15:18;;;;;;;24.00;14.33;;;;;;;3.37;70.00;101119.74;1779377;80;21678;-66
2020/12/15 05:17:49;;;;;;;22.77;14.07;;;;;;;3.62;69.41;101132.66;1773193;80;21424;-66
2020/12/15 05:20:27;;;;;;;22.73;14.05;;;;;;;3.60;69.40;101131.00;1781681;80;21179;-66
2020/12/15 05:22:57;;;;;;;26.82;14.43;;;;;;;3.57;69.48;101135.05;1784837;80;21720;-66
2020/12/15 05:25:31;;;;;;;24.32;13.68;;;;;;;3.54;69.55;101131.64;1773328;79;21184;-66
2020/12/15 05:28:03;;;;;;;22.20;13.72;;;;;;;3.51;69.58;101134.81;1782069;78;21151;-66
2020/12/15 05:30:33;;;;;;;22.73;13.25;;;;;;;3.49;69.66;101141.38;1776246;80;21935;-66
2020/12/15 05:33:16;;;;;;;21.37;12.40;;;;;;;3.48;69.77;101141.43;1781421;80;21151;-65
2020/12/15 05:36:04;;;;;;;22.67;12.28;;;;;;;3.64;69.60;101140.41;1828533;76;22783;-64
2020/12/15 05:38:36;;;;;;;26.85;14.33;;;;;;;3.72;69.29;101152.67;1808809;78;21144;-65
2020/12/15 05:41:05;;;;;;;26.60;13.70;;;;;;;3.81;69.05;101148.39;1806756;78;21255;-65
2020/12/15 05:43:40;;;;;;;25.17;13.68;;;;;;;3.86;68.91;101149.52;1789549;79;21207;-66
2020/12/15 05:46:09;;;;;;;23.15;12.85;;;;;;;3.87;68.85;101155.13;1765444;80;21173;-66
2020/12/15 05:48:37;;;;;;;22.70;13.35;;;;;;;3.81;68.80;101158.80;1760905;79;21147;-67
2020/12/15 05:51:05;;;;;;;26.23;15.78;;;;;;;3.74;68.84;101160.42;1791519;77;21239;-67
2020/12/15 05:53:32;;;;;;;22.27;14.73;;;;;;;3.63;68.87;101163.42;1805208;77;21185;-68
2020/12/15 05:56:00;;;;;;;27.20;14.90;;;;;;;3.53;69.05;101170.30;1810946;77;21088;-69
2020/12/15 05:58:28;;;;;;;26.45;15.90;;;;;;;3.45;69.11;101164.53;1800291;78;21168;-69
2020/12/15 06:00:56;;;;;;;24.63;14.83;;;;;;;3.38;69.28;101172.18;1800005;77;21413;-69
2020/12/15 06:03:23;;;;;;;27.75;13.58;;;;;;;3.33;69.44;101172.80;1816152;77;21172;-70
2020/12/15 06:05:51;;;;;;;21.25;13.35;;;;;;;3.34;69.43;101177.08;1784352;77;21362;-70
2020/12/15 06:08:19;;;;;;;29.02;14.93;;;;;;;3.44;69.27;101190.14;1797927;77;21390;-71
2020/12/15 06:10:47;;;;;;;24.80;14.60;;;;;;;3.49;69.12;101190.81;1804325;77;21674;-70
2020/12/15 06:13:15;;;;;;;22.35;13.90;;;;;;;3.52;69.15;101200.28;1803705;77;21659;-68
2020/12/15 06:15:44;;;;;;;21.40;12.63;;;;;;;3.51;69.28;101198.14;1797826;77;21476;-69
2020/12/15 06:18:12;;;;;;;25.27;16.27;;;;;;;3.50;69.36;101205.53;1794540;77;22273;-69
2020/12/15 06:20:44;;;;;;;22.02;15.10;;;;;;;3.48;69.35;101202.15;1800463;77;21197;-72
2020/12/15 06:23:14;;;;;;;23.85;14.30;;;;;;;3.44;69.45;101209.66;1807999;77;21159;-70
2020/12/15 06:25:47;;;;;;;21.65;13.93;;;;;;;3.42;69.52;101213.23;1813105;77;21646;-70
2020/12/15 06:28:15;;;;;;;24.18;15.15;;;;;;;3.38;69.54;101220.73;1796568;77;21207;-68
2020/12/15 06:30:44;;;;;;;24.43;13.35;;;;;;;3.32;69.62;101222.66;1737480;80;21262;-68
2020/12/15 06:33:13;;;;;;;23.77;13.85;;;;;;;3.27;69.70;101228.48;1744497;81;21218;-60
2020/12/15 06:35:47;;;;;;;23.40;12.75;;;;;;;3.27;69.70;101225.05;1774899;79;21231;-60
2020/12/15 06:38:20;;;;;;;21.97;13.38;;;;;;;3.35;69.53;101229.52;1779055;79;21230;-59
2020/12/15 06:40:49;;;;;;;20.75;13.38;;;;;;;3.42;69.50;101231.45;1776902;79;21229;-61
2020/12/15 06:43:30;;;;;;;24.67;13.35;;;;;;;3.47;69.51;101237.33;1805604;78;21605;-60
2020/12/15 06:46:06;;;;;;;19.15;13.28;;;;;;;3.42;69.58;101234.89;1805984;78;21650;-60
2020/12/15 06:48:36;;;;;;;30.10;16.77;;;;;;;3.40;69.66;101235.87;1807831;78;22401;-60
2020/12/15 06:51:03;;;;;;;24.87;14.83;;;;;;;3.38;69.80;101235.92;1799130;77;21187;-62
2020/12/15 06:53:31;;;;;;;26.57;13.38;;;;;;;3.37;69.88;101238.58;1803620;77;21195;-61
2020/12/15 06:56:00;;;;;;;21.55;12.68;;;;;;;3.35;69.87;101238.16;1796611;78;22211;-60
2020/12/15 06:58:28;;;;;;;19.75;12.73;;;;;;;3.30;69.95;101233.58;1801707;78;21218;-61
2020/12/15 07:00:58;;;;;;;20.55;13.13;;;;;;;3.24;70.02;101240.76;1800058;78;21175;-61
2020/12/15 07:03:39;;;;;;;26.57;14.28;;;;;;;3.24;70.08;101244.66;1798064;78;21242;-62
2020/12/15 07:06:14;;;;;;;20.52;11.83;;;;;;;3.33;69.98;101247.78;1804585;78;21241;-62
2020/12/15 07:08:43;;;;;;;25.80;12.80;;;;;;;3.45;69.85;101246.49;1803063;78;21336;-63
2020/12/15 07:11:10;;;;;;;19.65;11.88;;;;;;;3.52;69.79;101249.25;1802481;78;21223;-65
2020/12/15 07:13:39;;;;;;;21.17;12.68;;;;;;;3.51;69.86;101250.18;1802490;78;21675;-66
2020/12/15 07:16:17;;;;;;;25.95;13.72;;;;;;;3.51;69.86;101247.58;1805067;78;21218;-65
2020/12/15 07:18:45;;;;;;;23.92;13.22;;;;;;;3.52;69.90;101247.12;1800826;78;21167;-63
2020/12/15 07:21:59;;;;;;;21.73;13.22;;;;;;;3.50;69.91;101249.77;1823373;76;22515;-61
2020/12/15 07:24:26;;;;;;;22.20;12.43;;;;;;;3.45;70.03;101247.79;1799089;77;21872;-63
2020/12/15 07:26:54;;;;;;;16.95;12.45;;;;;;;3.44;70.05;101246.08;1800871;77;23595;-62
2020/12/15 07:29:22;;;;;;;27.77;12.98;;;;;;;3.42;70.13;101254.87;1766273;77;21310;-62
2020/12/15 07:31:51;;;;;;;19.00;11.80;;;;;;;3.46;70.05;101251.23;1799748;77;21820;-60
2020/12/15 07:34:20;;;;;;;23.15;12.35;;;;;;;3.51;69.85;101255.39;1799488;77;21180;-61
2020/12/15 07:36:50;;;;;;;18.80;11.48;;;;;;;3.56;69.82;101258.26;1802864;77;21163;-60
2020/12/15 07:39:19;;;;;;;17.73;11.50;;;;;;;3.58;69.81;101257.74;1802115;77;22201;-61
2020/12/15 07:42:01;;;;;;;20.80;11.95;;;;;;;3.57;69.81;101261.27;1801274;77;21591;-68
2020/12/15 07:44:40;;;;;;;21.37;13.15;;;;;;;3.52;69.98;101260.97;1751866;79;22731;-67
2020/12/15 07:47:07;;;;;;;22.55;13.05;;;;;;;3.42;70.10;101262.67;1726214;80;21200;-68
2020/12/15 07:49:36;;;;;;;22.45;13.75;;;;;;;3.38;70.34;101261.94;1728321;82;21665;-69
2020/12/15 07:52:05;;;;;;;27.10;15.23;;;;;;;3.38;70.45;101257.16;1728647;82;21215;-69
2020/12/15 07:54:33;;;;;;;24.02;14.65;;;;;;;3.39;70.50;101257.57;1729206;82;21394;-68
2020/12/15 07:57:01;;;;;;;19.37;12.33;;;;;;;3.39;70.50;101259.71;1724974;82;21244;-67
2020/12/15 07:59:30;;;;;;;24.80;12.07;;;;;;;3.44;70.51;101253.89;1728927;82;21141;-61
2020/12/15 08:01:58;;;;;;;23.73;13.62;;;;;;;3.58;70.26;101261.22;1736640;81;21438;-62
2020/12/15 08:04:25;;;;;;;21.00;12.53;;;;;;;3.68;70.08;101269.08;1730206;81;21224;-62
2020/12/15 08:06:53;;;;;;;25.70;14.35;;;;;;;3.76;69.98;101269.23;1730779;82;21192;-61
2020/12/15 08:09:21;;;;;;;21.50;12.63;;;;;;;3.79;69.88;101276.94;1737650;82;21176;-61
2020/12/15 08:11:49;;;;;;;28.98;13.30;;;;;;;3.78;69.78;101277.83;1722196;82;21263;-61
2020/12/15 08:14:16;;;;;;;21.87;14.00;;;;;;;3.75;69.84;101272.73;1733615;82;23060;-62
2020/12/15 08:16:47;;;;;;;24.72;13.40;;;;;;;3.71;69.84;101277.20;1718624;82;21251;-61
2020/12/15 08:19:16;;;;;;;21.45;13.53;;;;;;;3.70;70.06;101283.34;1727549;82;21156;-61
2020/12/15 08:21:48;;;;;;;25.20;13.68;;;;;;;3.67;70.10;101280.84;1730666;82;21184;-62
2020/12/15 08:24:21;;;;;;;23.20;12.43;;;;;;;3.63;70.25;101284.45;1704880;82;21633;-62
2020/12/15 08:26:49;;;;;;;23.20;13.25;;;;;;;3.67;70.23;101286.05;1722838;82;21379;-60
2020/12/15 08:29:16;;;;;;;21.48;12.35;;;;;;;3.77;70.00;101287.41;1720543;82;21143;-61
2020/12/15 08:31:44;;;;;;;19.23;11.90;;;;;;;3.83;69.82;101283.70;1702892;82;21642;-61
2020/12/15 08:34:17;;;;;;;23.52;14.30;;;;;;;3.85;69.86;101279.28;1690012;82;21216;-63
2020/12/15 08:36:50;;;;;;;22.17;11.97;;;;;;;3.83;69.86;101283.28;1686935;82;21576;-63
2020/12/15 08:39:22;;;;;;;21.65;12.80;;;;;;;3.82;70.01;101282.03;1689511;82;22209;-61
2020/12/15 08:41:55;;;;;;;21.55;12.58;;;;;;;3.78;70.07;101282.57;1689701;82;21219;-61
2020/12/15 08:44:23;;;;;;;17.60;12.20;;;;;;;3.74;70.09;101289.27;1673537;84;21289;-61
2020/12/15 08:46:51;;;;;;;21.52;14.33;;;;;;;3.71;70.28;101288.92;1673491;84;21208;-61
2020/12/15 08:49:21;;;;;;;24.12;12.98;;;;;;;3.65;70.24;101284.80;1681775;84;21157;-61
2020/12/15 08:51:51;;;;;;;21.65;13.48;;;;;;;3.66;70.33;101279.13;1672618;84;21210;-61
2020/12/15 08:54:19;;;;;;;19.85;11.88;;;;;;;3.79;70.21;101279.54;1678216;84;21149;-61
2020/12/15 08:56:48;;;;;;;25.37;13.80;;;;;;;3.86;69.98;101279.69;1671943;84;21482;-61
2020/12/15 08:59:20;;;;;;;27.42;13.93;;;;;;;3.90;70.02;101279.53;1671361;84;21593;-60
2020/12/15 09:01:58;;;;;;;24.18;13.45;;;;;;;3.94;69.98;101282.02;1671423;84;21199;-59
2020/12/15 09:04:27;;;;;;;22.90;13.70;;;;;;;3.91;69.87;101284.27;1677347;84;22227;-60
2020/12/15 09:06:55;;;;;;;27.90;16.70;;;;;;;3.83;70.03;101279.80;1679366;84;22391;-60
2020/12/15 09:09:28;;;;;;;24.85;15.08;;;;;;;3.76;70.22;101275.74;1672802;84;21204;-61
2020/12/15 09:11:56;;;;;;;25.02;15.43;;;;;;;3.72;70.50;101280.22;1676500;83;21208;-60
2020/12/15 09:14:23;;;;;;;25.45;15.45;;;;;;;3.73;70.58;101276.69;1681360;84;21231;-60
2020/12/15 09:16:51;;;;;;;24.50;15.43;;;;;;;3.74;70.67;101279.70;1675614;84;21359;-60
2020/12/15 09:19:21;;;;;;;24.32;14.80;;;;;;;3.81;70.57;101283.77;1682872;84;21655;-59
2020/12/15 09:22:06;;;;;;;22.87;13.75;;;;;;;3.95;70.28;101285.88;1682045;84;21203;-59
2020/12/15 09:24:43;;;;;;;25.97;14.05;;;;;;;4.06;70.12;101289.36;1681090;84;21224;-60
2020/12/15 09:27:22;;;;;;;21.33;13.22;;;;;;;4.14;70.01;101287.31;1678446;84;21184;-60
2020/12/15 09:29:51;;;;;;;20.95;12.68;;;;;;;4.20;70.09;101281.88;1677140;84;21294;-61
2020/12/15 09:32:18;;;;;;;29.05;15.32;;;;;;;4.28;69.94;101278.95;1680562;84;21232;-60
2020/12/15 09:34:47;;;;;;;22.42;15.05;;;;;;;4.28;69.68;101273.73;1722281;82;21177;-60
2020/12/15 09:37:15;;;;;;;22.62;13.83;;;;;;;4.28;69.47;101280.25;1712738;82;21156;-60
2020/12/15 09:39:44;;;;;;;25.12;15.23;;;;;;;4.22;69.45;101277.87;1720552;82;21188;-60
2020/12/15 09:42:15;;;;;;;25.85;13.50;;;;;;;4.16;69.47;101271.16;1711990;82;21386;-63
2020/12/15 09:44:43;;;;;;;25.20;14.78;;;;;;;4.11;69.63;101278.30;1715328;82;21172;-61
2020/12/15 09:47:11;;;;;;;22.62;14.85;;;;;;;4.11;69.47;101271.80;1705422;82;21128;-60
2020/12/15 09:49:40;;;;;;;26.05;14.63;;;;;;;4.17;69.32;101265.05;1720866;82;21105;-60
2020/12/15 09:52:08;;;;;;;20.72;14.28;;;;;;;4.23;69.37;101276.98;1709434;82;21639;-61
2020/12/15 09:54:35;;;;;;;21.23;14.13;;;;;;;4.30;69.35;101265.86;1710767;82;22109;-65
2020/12/15 09:57:03;;;;;;;27.87;18.10;;;;;;;4.31;69.37;101271.48;1711935;82;21192;-60
2020/12/15 09:59:31;;;;;;;27.50;13.45;;;;;;;4.27;69.35;101272.90;1721624;82;21460;-59
2020/12/15 10:01:59;;;;;;;39.80;19.00;;;;;;;4.23;69.37;101275.21;1665505;84;21183;-59
2020/12/15 10:04:27;;;;;;;27.07;17.73;;;;;;;4.18;69.64;101274.55;1717097;82;21548;-60
2020/12/15 10:06:57;;;;;;;25.88;16.90;;;;;;;4.16;69.79;101268.55;1719202;82;21201;-59
2020/12/15 10:09:25;;;;;;;29.98;18.70;;;;;;;4.15;69.75;101269.45;1655725;85;21248;-59
2020/12/15 10:11:52;;;;;;;29.35;17.30;;;;;;;4.14;69.88;101267.77;1715577;82;21663;-59
2020/12/15 10:14:20;;;;;;;46.35;22.67;;;;;;;4.24;69.74;101266.97;1717591;81;22102;-60
2020/12/15 10:16:48;;;;;;;28.35;17.12;;;;;;;4.37;69.56;101266.88;1720356;81;21185;-58
2020/12/15 10:19:16;;;;;;;27.98;17.05;;;;;;;4.45;69.30;101263.94;1714400;82;21255;-59
2020/12/15 10:21:44;;;;;;;31.37;16.67;;;;;;;4.47;68.98;101262.11;1712390;82;21693;-59
2020/12/15 10:24:13;;;;;;;33.75;17.80;;;;;;;4.41;69.05;101267.13;1714530;82;21160;-66
2020/12/15 10:26:41;;;;;;;28.45;16.35;;;;;;;4.34;68.99;101266.12;1713206;82;21599;-59
2020/12/15 10:29:09;;;;;;;34.58;18.37;;;;;;;4.29;68.94;101262.42;1715869;82;21560;-60
2020/12/15 10:31:36;;;;;;;29.90;18.77;;;;;;;4.21;69.14;101260.10;1714055;82;22124;-64
2020/12/15 10:34:05;;;;;;;27.90;16.45;;;;;;;4.17;69.33;101262.45;1715560;82;21384;-59
2020/12/15 10:36:33;;;;;;;31.20;18.67;;;;;;;4.14;69.47;101258.66;1711570;82;21244;-59
2020/12/15 10:39:00;;;;;;;30.52;17.77;;;;;;;4.10;69.46;101264.88;1714352;82;21125;-59
2020/12/15 10:41:29;;;;;;;28.80;17.62;;;;;;;4.09;69.56;101264.04;1709253;82;21676;-59
2020/12/15 10:43:57;;;;;;;28.60;17.75;;;;;;;4.21;69.36;101256.19;1714964;82;21572;-58
2020/12/15 10:46:25;;;;;;;31.20;17.75;;;;;;;4.25;69.14;101263.00;1720118;81;21251;-59
2020/12/15 10:48:53;;;;;;;30.52;17.73;;;;;;;4.26;69.31;101265.14;1713481;81;21185;-60
2020/12/15 10:51:21;;;;;;;30.92;19.82;;;;;;;4.23;69.33;101263.95;1714256;82;21776;-59
2020/12/15 10:53:48;;;;;;;37.20;20.05;;;;;;;4.22;69.58;101264.42;1716845;81;21141;-60
2020/12/15 10:56:16;;;;;;;29.85;19.35;;;;;;;4.22;69.67;101278.75;1715909;81;21219;-60
2020/12/15 10:58:44;;;;;;;29.00;19.05;;;;;;;4.25;69.78;101272.12;1711675;82;21679;-62
2020/12/15 11:01:12;;;;;;;34.83;20.35;;;;;;;4.28;69.64;101275.88;1712325;82;21224;-61
2020/12/15 11:03:40;;;;;;;30.02;17.17;;;;;;;4.27;69.55;101279.41;1712884;81;21182;-60
2020/12/15 11:06:07;;;;;;;35.68;20.68;;;;;;;4.26;69.30;101282.08;1712081;82;21204;-61
2020/12/15 11:08:35;;;;;;;26.40;17.17;;;;;;;4.29;69.05;101291.08;1714681;82;21666;-60
2020/12/15 11:11:02;;;;;;;30.02;17.00;;;;;;;4.31;68.99;101285.81;1711568;82;21845;-60
2020/12/15 11:13:30;;;;;;;32.75;21.17;;;;;;;4.33;69.10;101284.83;1715227;82;21172;-59
2020/12/15 11:15:58;;;;;;;30.68;19.05;;;;;;;4.34;69.36;101295.66;1709894;82;21548;-58
2020/12/15 11:18:25;;;;;;;36.35;18.25;;;;;;;4.34;69.35;101285.23;1715864;82;21176;-61
2020/12/15 11:20:53;;;;;;;33.92;19.15;;;;;;;4.28;69.27;101288.06;1710291;82;21382;-59
2020/12/15 11:23:20;;;;;;;30.70;18.65;;;;;;;4.22;69.34;101293.50;1713009;82;21205;-59
2020/12/15 11:25:49;;;;;;;25.30;17.25;;;;;;;4.15;69.39;101294.66;1713848;82;21452;-59
2020/12/15 11:28:17;;;;;;;27.87;16.70;;;;;;;4.06;69.60;101295.87;1718001;82;21189;-59
2020/12/15 11:30:46;;;;;;;30.65;17.32;;;;;;;4.05;69.68;101296.33;1710159;82;21160;-60